Acornridge, Missouri
Current Conditions -  °F | °C
As of 11:53 AM on Friday 28 Nov 2014 (Local Time) from KPOF Reporting Station
Clear Clear  
Wind Chill: 39°   Ceiling: Unl
Heat Index: 46°   Visibility: 10mi
Dew Point: 31°   Wind: 17mph
Humidity: 56%   Direction: 200°SSW
Pressure: 30.22"   Gusts: 24mph
Location:  36.9506°N, 90.1582°W
Report Text: KPOF 281753Z AUTO 20015G21KT 10SM CLR 08/M01 A3022 RMK AO2 SLP239 T00781006 10078 21033 58037
Loading
Personal Weather Stations






























Interactive Weather Map New forecast layout! Learn more

10-Day Weather Forecast

Advertisements
Track Severe Weather on mobile